Time;durP1;ratioP1;P1;durP2;ratioP2;P2;SDS_P1;SDS_P2;PMS_P1;PMS_P2;Temp;Humidity;BMP_temperature;BMP_pressure;BME280_temperature;BME280_humidity;BME280_pressure;Samples;Min_cycle;Max_cycle;Signal;HPM_P1;HPM_P2
2023/09/20 00:02:53;;;;;;;1.63;0.77;;;;;;;13.13;88.98;151982.97;10463331;28;20162;-68
2023/09/20 00:07:55;;;;;;;0.85;0.68;;;;;;;12.97;90.85;151940.28;10462761;28;20103;-68
2023/09/20 00:12:57;;;;;;;1.33;0.70;;;;;;;12.88;91.86;151919.63;10464583;28;20071;-68
2023/09/20 00:17:59;;;;;;;1.73;0.85;;;;;;;12.87;91.65;151917.00;10462609;28;20051;-68
2023/09/20 00:23:02;;;;;;;1.55;0.75;;;;;;;12.79;93.59;151896.34;10461464;28;20043;-69
2023/09/20 00:28:04;;;;;;;1.73;0.90;;;;;;;12.93;92.97;151931.28;10460756;28;20044;-68
2023/09/20 00:33:06;;;;;;;1.58;1.00;;;;;;;12.80;93.34;151898.94;10463605;28;20045;-68
2023/09/20 00:38:08;;;;;;;1.00;0.70;;;;;;;12.99;92.54;151946.78;10460267;28;20428;-69
2023/09/20 00:43:11;;;;;;;0.57;0.57;;;;;;;12.81;94.25;151901.50;10460338;28;20041;-68
2023/09/20 00:48:13;;;;;;;1.05;0.95;;;;;;;12.76;95.18;151888.59;10461781;28;20059;-70
2023/09/20 00:53:16;;;;;;;1.00;0.63;;;;;;;13.02;94.46;151954.56;10459829;28;20053;-70
2023/09/20 00:58:19;;;;;;;1.45;0.80;;;;;;;12.99;94.60;151945.50;10444942;28;20052;-69
2023/09/20 01:03:24;;;;;;;1.27;0.80;;;;;;;12.85;95.21;151911.84;10461086;28;20413;-70
2023/09/20 01:08:26;;;;;;;1.00;0.70;;;;;;;12.71;96.36;151874.38;10461002;28;20441;-70
2023/09/20 01:13:28;;;;;;;0.85;0.80;;;;;;;12.86;96.97;151913.16;10460459;28;20462;-70
2023/09/20 01:18:30;;;;;;;1.58;1.00;;;;;;;12.97;95.94;151941.63;10461960;28;20049;-70
2023/09/20 01:23:32;;;;;;;0.98;0.70;;;;;;;13.05;95.20;151961.00;10458903;28;20049;-70
2023/09/20 01:28:35;;;;;;;0.98;0.60;;;;;;;12.88;95.41;151919.63;10459646;28;20116;-70
2023/09/20 01:33:38;;;;;;;0.73;0.70;;;;;;;12.67;97.14;151865.31;10459368;28;20045;-70
2023/09/20 01:38:40;;;;;;;1.67;0.80;;;;;;;12.56;98.61;151836.84;10460482;28;20464;-70
2023/09/20 01:43:43;;;;;;;1.92;0.90;;;;;;;12.79;98.24;151895.00;10458302;28;20037;-69
2023/09/20 01:48:47;;;;;;;1.70;0.80;;;;;;;12.79;97.86;151896.34;10458537;28;20462;-69
2023/09/20 01:53:49;;;;;;;1.25;0.75;;;;;;;12.75;98.77;151884.66;10459305;28;20493;-68
2023/09/20 01:58:52;;;;;;;1.50;0.80;;;;;;;12.63;99.47;151856.25;10458391;28;20072;-70
2023/09/20 02:03:55;;;;;;;1.38;0.73;;;;;;;12.81;98.57;151901.50;10460042;28;20109;-70
2023/09/20 02:08:57;;;;;;;1.02;0.73;;;;;;;12.59;100.00;151844.59;10460077;28;20041;-68
2023/09/20 02:14:00;;;;;;;1.10;0.70;;;;;;;12.44;100.00;151807.13;10441365;28;20124;-67
2023/09/20 02:19:03;;;;;;;0.80;0.60;;;;;;;12.49;100.00;151820.03;10457169;28;20044;-67
2023/09/20 02:24:06;;;;;;;0.95;0.60;;;;;;;12.43;100.00;151804.50;10458596;28;20445;-66
2023/09/20 02:29:08;;;;;;;0.95;0.65;;;;;;;12.50;100.00;151821.34;10458676;28;20079;-67
2023/09/20 02:34:13;;;;;;;0.82;0.65;;;;;;;12.57;100.00;151840.75;10458783;28;20499;-70
2023/09/20 02:39:16;;;;;;;1.67;0.70;;;;;;;12.80;100.00;151897.66;10458749;28;20095;-67
2023/09/20 02:44:21;;;;;;;0.68;0.50;;;;;;;12.73;100.00;151879.50;10458235;28;20049;-67
2023/09/20 02:49:23;;;;;;;1.00;0.77;;;;;;;12.69;100.00;151869.16;10458001;28;20057;-67
2023/09/20 02:54:25;;;;;;;0.70;0.50;;;;;;;12.55;100.00;151835.53;10458867;28;20076;-67
2023/09/20 02:59:26;;;;;;;1.15;0.75;;;;;;;12.49;100.00;151818.75;10457388;28;20143;-67
2023/09/20 03:04:28;;;;;;;0.90;0.50;;;;;;;12.44;100.00;151805.78;10457677;28;20188;-67
2023/09/20 03:09:37;;;;;;;1.85;0.60;;;;;;;12.48;100.00;151817.44;10441957;28;20051;-67
2023/09/20 03:14:39;;;;;;;0.47;0.47;;;;;;;12.50;100.00;151822.63;10455992;28;20047;-67
2023/09/20 03:19:44;;;;;;;1.52;0.70;;;;;;;12.56;100.00;151838.13;10460968;28;20041;-67
2023/09/20 03:24:47;;;;;;;0.80;0.57;;;;;;;12.64;100.00;151857.53;10464499;28;20041;-67
2023/09/20 03:29:52;;;;;;;0.90;0.80;;;;;;;12.70;100.00;151873.03;10465952;28;20140;-67
2023/09/20 03:34:55;;;;;;;0.40;0.40;;;;;;;12.90;100.00;151922.22;10462775;28;20037;-67
2023/09/20 03:39:57;;;;;;;0.50;0.47;;;;;;;13.05;100.00;151962.28;10462543;28;20099;-68
2023/09/20 03:44:59;;;;;;;0.55;0.55;;;;;;;12.99;100.00;151946.78;10464386;28;20489;-67
2023/09/20 03:50:07;;;;;;;0.60;0.50;;;;;;;12.88;100.00;151919.63;10466126;28;20617;-67
2023/09/20 03:55:09;;;;;;;;;;;;;;;12.91;100.00;151926.06;10463627;28;20087;-67
2023/09/20 04:00:11;;;;;;;0.60;0.60;;;;;;;13.52;100.00;152080.09;10463928;28;19921;-67
2023/09/20 04:05:19;;;;;;;1.13;0.63;;;;;;;13.36;100.00;152041.25;10462367;28;20041;-67
2023/09/20 04:10:42;;;;;;;1.15;0.63;;;;;;;13.14;100.00;151985.56;10463541;28;20095;-67
2023/09/20 04:15:44;;;;;;;0.82;0.65;;;;;;;13.21;100.00;152001.13;10462759;28;20091;-67
2023/09/20 04:20:47;;;;;;;0.90;0.77;;;;;;;12.87;100.00;151917.00;10462854;28;20140;-67
2023/09/20 04:25:53;;;;;;;1.55;0.98;;;;;;;12.87;100.00;151915.72;10463325;28;20045;-67
2023/09/20 04:30:55;;;;;;;1.20;0.90;;;;;;;13.32;100.00;152030.88;10462386;28;20052;-67
2023/09/20 04:35:58;;;;;;;1.23;0.73;;;;;;;13.43;100.00;152058.09;10464179;28;20044;-67
2023/09/20 04:41:01;;;;;;;1.83;0.90;;;;;;;13.30;100.00;152024.44;10461085;28;20107;-67
2023/09/20 04:46:06;;;;;;;1.20;0.73;;;;;;;13.08;100.00;151968.75;10461296;28;20095;-67
2023/09/20 04:51:09;;;;;;;1.98;0.90;;;;;;;13.02;100.00;151954.56;10461879;28;20060;-67
2023/09/20 04:56:12;;;;;;;0.93;0.73;;;;;;;13.11;100.00;151977.84;10462622;28;20574;-67
2023/09/20 05:01:15;;;;;;;1.17;0.80;;;;;;;13.38;100.00;152045.16;10461481;28;20053;-67
2023/09/20 05:06:19;;;;;;;1.13;0.70;;;;;;;13.40;99.65;152049.03;10460512;28;20041;-67
2023/09/20 05:11:22;;;;;;;1.17;0.85;;;;;;;13.74;98.50;152137.03;10461134;28;20053;-67
2023/09/20 05:16:23;;;;;;;0.85;0.65;;;;;;;13.55;99.25;152087.88;10460979;28;20563;-67
2023/09/20 05:21:26;;;;;;;0.85;0.70;;;;;;;13.95;97.31;152190.09;10460392;28;20112;-67
2023/09/20 05:26:28;;;;;;;1.73;0.80;;;;;;;13.78;98.72;152146.09;10459866;28;20055;-68
2023/09/20 05:31:32;;;;;;;1.20;1.00;;;;;;;13.91;98.28;152179.75;10460029;28;20057;-69
2023/09/20 05:36:35;;;;;;;1.35;0.93;;;;;;;13.83;100.00;152160.31;10459710;28;20063;-68
2023/09/20 05:41:39;;;;;;;1.25;0.75;;;;;;;13.74;100.00;152135.72;10460997;28;20467;-69
2023/09/20 05:46:41;;;;;;;1.45;1.00;;;;;;;13.80;100.00;152152.53;10459211;28;20045;-68
2023/09/20 05:51:44;;;;;;;2.00;1.00;;;;;;;13.76;100.00;152140.88;10459590;28;20048;-70
2023/09/20 05:56:45;;;;;;;1.00;0.82;;;;;;;13.94;100.00;152187.47;10458737;28;20080;-68
2023/09/20 06:01:47;;;;;;;1.42;0.90;;;;;;;14.25;100.00;152265.16;10459580;28;20049;-68
2023/09/20 06:06:50;;;;;;;1.90;0.85;;;;;;;14.60;98.36;152355.84;10459146;28;20450;-70
2023/09/20 06:11:52;;;;;;;0.82;0.45;;;;;;;15.04;92.75;152467.22;10459331;28;20116;-68
2023/09/20 06:16:53;;;;;;;0.63;0.50;;;;;;;15.09;92.04;152480.19;10457412;28;20060;-67
2023/09/20 06:21:55;;;;;;;0.82;0.40;;;;;;;15.44;88.35;152568.28;10459580;28;20033;-68
2023/09/20 06:26:58;;;;;;;0.55;0.52;;;;;;;15.50;88.45;152582.56;10459317;28;20190;-68
2023/09/20 06:32:03;;;;;;;0.75;0.43;;;;;;;15.77;84.97;152651.31;10457624;28;20566;-68
2023/09/20 06:37:05;;;;;;;0.60;0.40;;;;;;;15.95;82.89;152697.97;10458648;28;20135;-68
2023/09/20 06:42:08;;;;;;;0.73;0.40;;;;;;;16.42;78.86;152817.22;10458288;28;20536;-71
2023/09/20 06:47:10;;;;;;;0.60;0.40;;;;;;;16.53;78.53;152845.75;10460260;28;20045;-68
2023/09/20 06:52:12;;;;;;;1.58;0.45;;;;;;;16.72;78.11;152892.44;10461891;28;20037;-67
2023/09/20 06:57:18;;;;;;;0.40;0.40;;;;;;;17.32;75.88;153045.56;10466507;28;20048;-68
2023/09/20 07:02:22;;;;;;;0.50;0.32;;;;;;;17.82;72.24;153174.09;10468940;28;20029;-67
2023/09/20 07:07:25;;;;;;;0.70;0.30;;;;;;;18.26;69.92;153285.72;10468850;28;20416;-68
2023/09/20 07:12:28;;;;;;;0.35;0.30;;;;;;;18.58;67.20;153367.50;10464928;28;20045;-68
2023/09/20 07:17:30;;;;;;;1.00;0.30;;;;;;;18.62;67.07;153376.63;10464025;28;20045;-68
2023/09/20 07:22:34;;;;;;;0.95;0.50;;;;;;;18.77;65.37;153415.66;10465379;28;20048;-68
2023/09/20 07:27:36;;;;;;;0.65;0.30;;;;;;;18.94;64.73;153457.19;10465464;28;20041;-67
2023/09/20 07:32:38;;;;;;;0.35;0.30;;;;;;;19.02;65.18;153477.97;10466140;28;20036;-68
2023/09/20 07:37:43;;;;;;;0.65;0.40;;;;;;;18.95;65.74;153461.09;10464994;28;20044;-68
2023/09/20 07:42:46;;;;;;;0.43;0.32;;;;;;;19.20;65.55;153523.44;10485572;28;20041;-67
2023/09/20 07:47:48;;;;;;;0.32;0.30;;;;;;;19.47;63.09;153593.59;10475769;28;20052;-68
2023/09/20 07:52:50;;;;;;;1.02;0.40;;;;;;;19.50;62.56;153601.41;10510488;28;20033;-74
2023/09/20 07:57:58;;;;;;;0.40;0.35;;;;;;;19.66;62.10;153641.75;10490047;28;20492;-82
2023/09/20 08:02:59;;;;;;;0.60;0.30;;;;;;;19.81;61.75;153679.44;10479294;28;20033;-77
2023/09/20 08:08:02;;;;;;;1.73;0.65;;;;;;;19.81;61.21;153680.72;10477814;28;20045;-77
2023/09/20 08:13:05;;;;;;;0.38;0.35;;;;;;;19.98;60.04;153722.31;10486518;28;20089;-78
2023/09/20 09:00:56;;;;;;;1.73;0.30;;;;;;;21.47;55.23;154103.47;10470004;28;20045;-72
2023/09/20 09:06:01;;;;;;;0.22;0.22;;;;;;;21.71;55.47;154163.31;10462825;28;20536;-74
2023/09/20 09:11:03;;;;;;;1.02;0.30;;;;;;;21.73;55.55;154169.78;10463474;28;20037;-72
2023/09/20 09:16:07;;;;;;;2.25;0.38;;;;;;;22.16;52.75;154280.47;10460847;28;20118;-73
2023/09/20 09:21:09;;;;;;;1.50;0.60;;;;;;;22.32;52.20;154319.53;10464146;28;20076;-71
2023/09/20 09:26:11;;;;;;;0.50;0.40;;;;;;;22.35;51.89;154327.31;10462326;28;20041;-71
2023/09/20 09:31:14;;;;;;;0.65;0.45;;;;;;;23.01;51.26;154496.66;10460121;28;20048;-70
2023/09/20 09:36:16;;;;;;;0.50;0.30;;;;;;;23.46;49.42;154611.25;10459463;28;20083;-71
2023/09/20 09:41:18;;;;;;;1.52;0.40;;;;;;;23.97;48.96;154740.34;10461099;28;20098;-70
2023/09/20 09:46:20;;;;;;;1.23;0.50;;;;;;;24.15;47.51;154788.53;10459525;28;20037;-71
2023/09/20 09:51:23;;;;;;;0.85;0.30;;;;;;;24.58;48.24;154898.09;10459108;28;20045;-72
2023/09/20 09:56:25;;;;;;;0.75;0.30;;;;;;;25.00;45.44;155003.69;10458116;28;20509;-72
2023/09/20 10:01:28;;;;;;;0.88;0.40;;;;;;;25.47;45.29;155125.03;10467625;28;20040;-71
2023/09/20 10:06:31;;;;;;;0.77;0.32;;;;;;;25.35;44.71;155095.03;10485946;28;20047;-71
2023/09/20 10:11:34;;;;;;;0.52;0.20;;;;;;;25.24;43.40;155065.06;10459059;28;20037;-71
2023/09/20 10:16:39;;;;;;;0.50;0.40;;;;;;;25.39;43.00;155105.47;10458563;28;20059;-71
2023/09/20 10:22:01;;;;;;;1.55;0.40;;;;;;;25.84;43.36;155220.28;10460720;28;20116;-71
2023/09/20 10:27:07;;;;;;;1.08;0.40;;;;;;;25.85;42.44;155221.59;10460333;28;20044;-71
2023/09/20 10:32:19;;;;;;;1.15;0.38;;;;;;;26.12;41.89;155290.78;10457159;28;20048;-72
2023/09/20 10:37:22;;;;;;;0.50;0.22;;;;;;;26.13;40.57;155294.69;10457871;28;20041;-72
2023/09/20 10:42:23;;;;;;;0.98;0.30;;;;;;;26.30;41.68;155336.44;10459149;28;20044;-72
2023/09/20 10:47:25;;;;;;;0.93;0.30;;;;;;;26.70;41.07;155439.59;10460031;28;20057;-71
2023/09/20 10:52:33;;;;;;;0.55;0.40;;;;;;;26.92;41.74;155495.75;10459978;28;20115;-71
2023/09/20 10:57:35;;;;;;;0.45;0.40;;;;;;;26.93;41.08;155498.34;10459690;28;20079;-71
2023/09/20 11:02:38;;;;;;;0.52;0.30;;;;;;;26.79;40.02;155463.09;10458944;28;20087;-71
2023/09/20 11:07:42;;;;;;;0.20;0.20;;;;;;;27.03;41.80;155523.13;10458548;28;20068;-72
2023/09/20 11:12:44;;;;;;;1.02;0.22;;;;;;;27.02;39.97;155521.81;10458479;28;20086;-72
2023/09/20 11:17:47;;;;;;;0.57;0.30;;;;;;;27.53;39.94;155652.44;10457803;28;20045;-72
2023/09/20 11:22:51;;;;;;;0.52;0.20;;;;;;;28.13;39.20;155806.63;10457883;28;20120;-72
2023/09/20 11:27:53;;;;;;;0.63;0.20;;;;;;;27.87;38.93;155738.69;10457769;28;20048;-72
2023/09/20 11:32:55;;;;;;;0.45;0.30;;;;;;;28.10;38.92;155797.47;10457639;28;20135;-72
2023/09/20 11:37:57;;;;;;;0.68;0.20;;;;;;;27.95;37.06;155759.59;10457892;28;20049;-72
2023/09/20 11:43:02;;;;;;;0.30;0.30;;;;;;;27.63;39.64;155677.28;10463907;28;20547;-72
2023/09/20 11:48:08;;;;;;;0.53;0.40;;;;;;;27.76;39.35;155709.94;10463270;28;20053;-71
2023/09/20 11:53:15;;;;;;;0.40;0.32;;;;;;;28.33;40.08;155856.25;10466901;28;20033;-72
2023/09/20 11:58:20;;;;;;;1.33;0.40;;;;;;;28.00;40.54;155771.34;10465538;28;20490;-73
2023/09/20 12:03:22;;;;;;;;;;;;;;;27.47;38.48;155635.47;10465178;28;20040;-72
2023/09/20 12:08:30;;;;;;;0.57;0.40;;;;;;;26.75;40.84;155451.34;10465661;28;19920;-72
2023/09/20 12:13:32;;;;;;;0.70;0.40;;;;;;;27.22;41.01;155571.47;10465930;28;20059;-71
2023/09/20 12:18:36;;;;;;;1.23;0.40;;;;;;;26.95;41.24;155503.53;10465508;28;20045;-71
2023/09/20 12:23:39;;;;;;;0.90;0.47;;;;;;;26.90;42.70;155490.50;10462303;28;20084;-71
2023/09/20 12:28:40;;;;;;;0.40;0.35;;;;;;;26.56;43.45;155403.03;10463027;28;20488;-71
2023/09/20 12:33:43;;;;;;;0.32;0.32;;;;;;;26.37;42.62;155354.69;10463904;28;20377;-71
2023/09/20 12:38:45;;;;;;;0.30;0.30;;;;;;;26.30;43.30;155337.75;10463637;28;20576;-71
2023/09/20 12:43:49;;;;;;;0.57;0.50;;;;;;;26.09;44.38;155284.25;10462812;28;20051;-71
2023/09/20 12:48:51;;;;;;;0.47;0.30;;;;;;;26.01;44.36;155263.34;10461975;28;20128;-71
2023/09/20 12:53:53;;;;;;;0.30;0.30;;;;;;;25.80;44.16;155209.84;10463835;28;20489;-72
2023/09/20 12:58:56;;;;;;;0.52;0.40;;;;;;;25.80;45.15;155208.56;10464698;28;20578;-72
2023/09/20 13:03:58;;;;;;;0.75;0.40;;;;;;;25.87;44.94;155228.13;10463368;28;20382;-72
2023/09/20 13:09:00;;;;;;;1.20;0.40;;;;;;;25.76;44.52;155198.06;10465057;28;20118;-72
2023/09/20 13:14:02;;;;;;;0.40;0.40;;;;;;;25.86;45.58;155224.22;10462521;28;20041;-71
2023/09/20 13:19:05;;;;;;;0.60;0.30;;;;;;;26.00;44.68;155259.47;10464890;28;20134;-71
2023/09/20 13:24:10;;;;;;;0.60;0.38;;;;;;;25.88;46.12;155230.72;10465007;28;20106;-72
2023/09/20 13:29:13;;;;;;;0.40;0.40;;;;;;;25.82;44.56;155213.78;10463609;28;20399;-72
2023/09/20 13:34:16;;;;;;;0.73;0.50;;;;;;;25.67;44.89;155177.19;10461119;28;20045;-72
2023/09/20 13:39:18;;;;;;;0.35;0.22;;;;;;;25.85;45.28;155222.94;10459929;28;20052;-71
2023/09/20 13:44:20;;;;;;;0.43;0.30;;;;;;;26.15;44.34;155298.56;10462259;28;20029;-71
2023/09/20 13:49:22;;;;;;;0.40;0.20;;;;;;;26.25;42.98;155323.34;10460725;28;20088;-71
2023/09/20 13:54:24;;;;;;;0.52;0.20;;;;;;;26.27;41.49;155328.59;10459438;28;20489;-71
2023/09/20 13:59:29;;;;;;;0.40;0.20;;;;;;;26.00;42.87;155259.47;10460986;28;20080;-72
2023/09/20 14:04:31;;;;;;;0.30;0.30;;;;;;;26.31;43.27;155340.34;10460376;28;20037;-72
2023/09/20 14:09:33;;;;;;;1.08;0.52;;;;;;;25.99;42.78;155256.84;10459034;28;20041;-72
2023/09/20 14:14:36;;;;;;;0.40;0.30;;;;;;;26.04;43.92;155269.91;10459417;28;20413;-73
2023/09/20 14:19:38;;;;;;;0.25;0.25;;;;;;;25.99;43.41;155258.16;10460149;28;20044;-73
2023/09/20 14:24:40;;;;;;;0.30;0.30;;;;;;;25.94;43.85;155245.06;10458453;28;20091;-74
2023/09/20 14:29:42;;;;;;;1.00;0.30;;;;;;;26.10;43.85;155285.53;10461788;28;20051;-73
2023/09/20 14:34:44;;;;;;;0.95;0.30;;;;;;;26.00;43.08;155260.75;10458477;28;20794;-72
2023/09/20 14:39:46;;;;;;;0.50;0.38;;;;;;;26.01;43.65;155262.06;10488663;28;20583;-72
2023/09/20 14:44:48;;;;;;;0.20;0.20;;;;;;;25.76;44.75;155199.41;10499243;28;20036;-72
2023/09/20 14:49:50;;;;;;;1.02;0.60;;;;;;;25.78;43.69;155204.66;10500147;28;20040;-72
2023/09/20 14:54:53;;;;;;;0.28;0.20;;;;;;;25.63;44.17;155166.78;10499615;28;20503;-71
2023/09/20 14:59:56;;;;;;;0.50;0.30;;;;;;;25.55;44.03;155145.91;10499650;28;20063;-71
2023/09/20 15:05:03;;;;;;;0.20;0.20;;;;;;;25.47;43.85;155125.03;10498862;28;20075;-71
2023/09/20 15:10:10;;;;;;;0.25;0.20;;;;;;;25.31;44.97;155084.59;10503164;28;20048;-71
2023/09/20 15:15:14;;;;;;;0.35;0.35;;;;;;;25.47;44.33;155123.72;10505275;28;20045;-71
2023/09/20 15:20:18;;;;;;;0.52;0.52;;;;;;;25.31;44.67;155083.28;10509253;28;20055;-72
2023/09/20 15:25:22;;;;;;;0.60;0.50;;;;;;;25.33;43.70;155088.53;10507891;28;20496;-72
2023/09/20 15:30:24;;;;;;;0.30;0.30;;;;;;;25.21;44.75;155057.22;10507825;28;20110;-72
2023/09/20 15:35:27;;;;;;;1.05;0.50;;;;;;;25.11;44.90;155033.75;10508622;28;20032;-72
2023/09/20 15:40:29;;;;;;;0.30;0.30;;;;;;;25.05;44.33;155016.72;10507937;28;20041;-71
2023/09/20 15:45:33;;;;;;;0.20;0.20;;;;;;;25.12;44.25;155035.03;10508023;28;20098;-71
2023/09/20 15:50:37;;;;;;;0.30;0.30;;;;;;;24.94;44.36;154989.34;10490751;28;20098;-72
2023/09/20 15:55:39;;;;;;;0.20;0.20;;;;;;;24.63;45.75;154911.13;10508590;28;20116;-71
2023/09/20 16:00:41;;;;;;;0.65;0.30;;;;;;;24.50;45.91;154875.94;10507042;28;20158;-71
2023/09/20 16:05:43;;;;;;;0.60;0.30;;;;;;;24.40;46.12;154852.47;10509009;28;20036;-72
2023/09/20 16:10:46;;;;;;;0.30;0.25;;;;;;;24.31;46.49;154828.97;10508717;28;20052;-72
2023/09/20 16:15:50;;;;;;;0.30;0.30;;;;;;;24.25;46.23;154813.28;10506532;28;20553;-72
2023/09/20 16:20:52;;;;;;;0.30;0.30;;;;;;;24.06;47.22;154763.78;10503519;28;20056;-73
2023/09/20 16:25:54;;;;;;;0.30;0.30;;;;;;;24.05;47.08;154762.50;10502963;28;20101;-71
2023/09/20 16:30:56;;;;;;;0.93;0.30;;;;;;;23.71;48.66;154673.88;10504150;28;20055;-72
2023/09/20 16:35:58;;;;;;;0.75;0.43;;;;;;;23.41;49.37;154598.25;10503975;28;20048;-73
2023/09/20 16:41:00;;;;;;;0.40;0.20;;;;;;;23.35;49.48;154583.94;10505109;28;20044;-73
2023/09/20 16:46:03;;;;;;;0.38;0.38;;;;;;;23.21;50.03;154547.47;10503513;28;20064;-73
2023/09/20 16:51:05;;;;;;;0.50;0.30;;;;;;;22.88;51.53;154464.03;10502776;28;20068;-73
2023/09/20 16:56:08;;;;;;;0.50;0.45;;;;;;;22.63;51.57;154400.25;10506423;28;20043;-74
2023/09/20 17:01:17;;;;;;;0.38;0.38;;;;;;;22.40;52.47;154340.34;10508233;28;20094;-73
2023/09/20 17:06:19;;;;;;;2.28;0.40;;;;;;;22.24;53.15;154300.00;10506043;28;20131;-73
2023/09/20 17:11:21;;;;;;;0.40;0.40;;;;;;;22.09;54.10;154262.22;10506129;28;20428;-73
2023/09/20 17:16:23;;;;;;;0.60;0.32;;;;;;;22.00;54.58;154238.81;10505613;28;20040;-73
2023/09/20 17:21:26;;;;;;;0.28;0.20;;;;;;;21.79;55.42;154184.13;10504946;28;20044;-73
2023/09/20 17:26:28;;;;;;;0.88;0.40;;;;;;;21.72;55.98;154165.91;10505528;28;20064;-73
2023/09/20 17:31:30;;;;;;;0.57;0.43;;;;;;;21.38;57.54;154081.34;10503722;28;20059;-73
2023/09/20 17:36:33;;;;;;;0.50;0.38;;;;;;;21.14;58.23;154020.13;10504258;28;20037;-72
2023/09/20 17:41:35;;;;;;;0.50;0.43;;;;;;;21.18;58.25;154029.25;10505875;28;20105;-72
2023/09/20 17:46:38;;;;;;;0.70;0.55;;;;;;;21.21;57.87;154035.75;10506547;28;20047;-72
2023/09/20 17:51:41;;;;;;;1.23;0.60;;;;;;;21.00;58.65;153983.72;10505051;28;20071;-71
2023/09/20 17:56:47;;;;;;;1.00;0.70;;;;;;;20.95;58.48;153969.41;10503161;28;20040;-73
2023/09/20 18:01:50;;;;;;;0.63;0.55;;;;;;;20.82;58.77;153938.19;10502550;28;20040;-74
2023/09/20 18:06:52;;;;;;;1.00;0.47;;;;;;;20.69;59.19;153903.09;10507266;28;20067;-73
2023/09/20 18:11:54;;;;;;;0.68;0.50;;;;;;;20.54;59.30;153866.69;10505644;28;20062;-72
2023/09/20 18:16:56;;;;;;;0.60;0.50;;;;;;;20.56;59.36;153871.88;10489570;28;20064;-73
2023/09/20 18:21:58;;;;;;;0.43;0.43;;;;;;;20.37;59.60;153822.44;10503441;28;20037;-72
2023/09/20 18:27:00;;;;;;;1.08;0.88;;;;;;;20.24;59.97;153789.91;10504828;28;20033;-72
2023/09/20 18:32:03;;;;;;;0.60;0.50;;;;;;;20.13;60.38;153762.59;10503420;28;20049;-73
2023/09/20 18:37:05;;;;;;;0.60;0.50;;;;;;;20.03;61.19;153736.59;10502801;28;20060;-73
2023/09/20 18:42:07;;;;;;;0.98;0.55;;;;;;;19.97;61.73;153719.72;10502176;28;20048;-72
2023/09/20 18:47:10;;;;;;;0.60;0.60;;;;;;;20.01;62.05;153731.44;10502096;28;20044;-73
2023/09/20 18:52:13;;;;;;;0.45;0.40;;;;;;;19.92;62.34;153708.00;10505402;28;20492;-72
2023/09/20 18:57:17;;;;;;;0.70;0.60;;;;;;;19.68;62.90;153645.63;10501624;28;20047;-73
2023/09/20 19:02:23;;;;;;;0.40;0.40;;;;;;;19.45;64.32;153587.13;10502256;28;20502;-72
2023/09/20 19:07:25;;;;;;;;;;;;;;;19.26;64.83;153540.34;10505720;28;20076;-73
2023/09/20 19:12:27;;;;;;;0.90;0.70;;;;;;;19.14;65.34;153510.44;10504115;28;20288;-72
2023/09/20 19:17:32;;;;;;;0.90;0.80;;;;;;;18.96;65.95;153463.69;10483271;28;20040;-72
2023/09/20 19:22:35;;;;;;;0.93;0.83;;;;;;;18.76;67.33;153411.72;10499300;28;20075;-71
2023/09/20 19:27:39;;;;;;;0.65;0.52;;;;;;;18.64;68.15;153383.13;10501748;28;20032;-73
2023/09/20 19:32:44;;;;;;;1.35;0.80;;;;;;;18.65;68.30;153385.72;10502061;28;20048;-72
2023/09/20 19:37:46;;;;;;;1.10;0.80;;;;;;;18.57;67.95;153363.63;10503283;28;20052;-72
2023/09/20 19:42:50;;;;;;;1.00;0.82;;;;;;;18.63;68.25;153380.50;10500755;28;20364;-73
2023/09/20 19:47:54;;;;;;;1.25;0.80;;;;;;;18.96;68.62;153463.69;10498321;28;20408;-72
2023/09/20 19:52:57;;;;;;;0.80;0.70;;;;;;;18.81;69.26;153424.69;10500867;28;20421;-72
2023/09/20 19:57:59;;;;;;;1.17;0.75;;;;;;;18.70;69.28;153396.16;10502573;28;20049;-72
2023/09/20 20:03:02;;;;;;;0.60;0.60;;;;;;;18.62;70.22;153377.91;10505231;28;20475;-72
2023/09/20 20:08:10;;;;;;;1.38;0.70;;;;;;;18.61;70.80;153374.03;10508774;28;20102;-72
2023/09/20 20:13:12;;;;;;;1.00;0.82;;;;;;;18.28;71.02;153290.94;10508876;28;20051;-73
2023/09/20 20:18:17;;;;;;;1.02;0.70;;;;;;;18.03;71.65;153226.03;10509210;28;20040;-71
2023/09/20 20:23:21;;;;;;;0.88;0.70;;;;;;;18.03;72.29;153227.31;10507376;28;20040;-72
2023/09/20 20:28:25;;;;;;;0.88;0.80;;;;;;;18.03;73.30;153227.31;10507839;28;20037;-72
2023/09/20 20:33:28;;;;;;;0.70;0.65;;;;;;;18.08;72.51;153239.00;10505130;28;20420;-72
2023/09/20 20:38:32;;;;;;;1.40;0.80;;;;;;;17.89;72.29;153192.28;10505515;28;20500;-72
2023/09/20 20:43:34;;;;;;;1.40;1.00;;;;;;;17.62;72.95;153123.44;10506452;28;20121;-71
2023/09/20 20:48:36;;;;;;;1.45;0.88;;;;;;;17.50;73.47;153092.28;10505707;28;20082;-71
2023/09/20 20:53:46;;;;;;;1.05;0.60;;;;;;;17.51;74.19;153093.56;10503415;28;20094;-71
2023/09/20 20:58:48;;;;;;;1.13;0.88;;;;;;;17.86;73.96;153183.19;10504929;28;20037;-72
2023/09/20 21:03:53;;;;;;;1.38;1.10;;;;;;;17.68;74.55;153137.69;10507116;28;20071;-70
2023/09/20 21:08:55;;;;;;;1.20;0.82;;;;;;;17.48;74.49;153085.78;10504244;28;20411;-71
2023/09/20 21:13:58;;;;;;;1.10;0.93;;;;;;;17.44;75.11;153075.38;10505359;28;20045;-71
2023/09/20 21:19:00;;;;;;;1.27;0.75;;;;;;;17.14;75.88;153001.47;10503244;28;20036;-70
2023/09/20 21:24:04;;;;;;;1.52;0.80;;;;;;;16.92;77.58;152943.09;10506584;28;20060;-71
2023/09/20 21:29:06;;;;;;;1.45;0.82;;;;;;;17.02;77.07;152969.03;10503070;28;20064;-72
2023/09/20 21:34:08;;;;;;;1.38;0.90;;;;;;;16.85;77.37;152926.22;10506248;28;20044;-72
2023/09/20 21:39:10;;;;;;;1.17;0.77;;;;;;;16.72;77.77;152893.78;10502359;28;20079;-70
2023/09/20 21:44:12;;;;;;;0.95;0.77;;;;;;;16.79;78.96;152910.66;10503505;28;20041;-71
2023/09/20 21:49:14;;;;;;;1.40;0.68;;;;;;;17.03;78.15;152972.91;10502858;28;20534;-70
2023/09/20 21:54:17;;;;;;;1.10;0.73;;;;;;;16.85;78.00;152926.22;10502043;28;20090;-71
2023/09/20 21:59:19;;;;;;;1.08;0.82;;;;;;;16.86;77.92;152930.09;10502348;28;20518;-72
2023/09/20 22:04:21;;;;;;;2.00;0.90;;;;;;;16.58;79.48;152857.44;10501703;28;20070;-69
2023/09/20 22:09:23;;;;;;;0.98;0.75;;;;;;;16.22;80.91;152765.38;10502339;28;20041;-70
2023/09/20 22:14:25;;;;;;;1.73;1.23;;;;;;;16.01;83.51;152713.50;10501995;28;20052;-70
2023/09/20 22:19:30;;;;;;;1.17;0.75;;;;;;;16.31;83.53;152788.72;10500295;28;20052;-70
2023/09/20 22:24:32;;;;;;;1.50;1.10;;;;;;;16.53;81.53;152845.75;10500217;28;20037;-71
2023/09/20 22:29:34;;;;;;;1.17;1.08;;;;;;;16.30;82.33;152787.41;10500352;28;20084;-70
2023/09/20 22:34:35;;;;;;;1.48;1.02;;;;;;;16.26;81.68;152777.03;10500893;28;20114;-70
2023/09/20 22:39:37;;;;;;;1.33;0.95;;;;;;;16.09;80.69;152734.25;10499580;28;20044;-70
2023/09/20 22:44:39;;;;;;;0.80;0.73;;;;;;;16.03;81.76;152718.72;10499327;28;20500;-71
2023/09/20 22:49:41;;;;;;;1.48;1.00;;;;;;;16.02;81.17;152716.06;10498951;28;20427;-70
2023/09/20 22:54:43;;;;;;;1.05;0.90;;;;;;;15.89;81.67;152683.72;10500058;28;20033;-71
2023/09/20 22:59:45;;;;;;;0.80;0.75;;;;;;;16.25;81.04;152773.16;10499122;28;20064;-71
2023/09/20 23:04:47;;;;;;;1.20;1.10;;;;;;;15.93;82.46;152692.75;10497822;28;20041;-70
2023/09/20 23:09:49;;;;;;;0.98;0.75;;;;;;;15.81;82.99;152661.69;10498001;28;20044;-70
2023/09/20 23:14:53;;;;;;;1.13;0.90;;;;;;;15.76;83.74;152648.69;10500315;28;20408;-71
2023/09/20 23:20:04;;;;;;;0.90;0.80;;;;;;;15.84;83.27;152669.41;10500760;28;20056;-70
2023/09/20 23:25:07;;;;;;;1.08;0.90;;;;;;;16.05;82.90;152722.56;10499048;28;20446;-70
2023/09/20 23:30:10;;;;;;;1.55;0.90;;;;;;;15.97;82.81;152701.84;10497937;28;20049;-70
2023/09/20 23:35:15;;;;;;;1.27;0.90;;;;;;;15.90;83.50;152685.00;10501191;28;20048;-71
2023/09/20 23:40:17;;;;;;;1.27;0.90;;;;;;;15.58;84.30;152604.59;10507723;28;20056;-70
2023/09/20 23:45:20;;;;;;;1.27;0.88;;;;;;;15.41;85.42;152559.25;10504911;28;20090;-70
2023/09/20 23:50:22;;;;;;;1.33;0.80;;;;;;;15.64;83.37;152618.91;10504724;28;20045;-70
2023/09/20 23:55:24;;;;;;;1.38;1.17;;;;;;;15.33;84.85;152541.09;10506429;28;20496;-70
